sensor_id;sensor_type;location;lat;lon;timestamp;P1;durP1;ratioP1;P2;durP2;ratioP2
37657;SDS011;23500;53.268;8.308;2023-10-31T00:01:20;11.50;;;4.65;;
37657;SDS011;23500;53.268;8.308;2023-10-31T00:03:46;11.55;;;4.80;;
37657;SDS011;23500;53.268;8.308;2023-10-31T00:06:11;11.07;;;4.85;;
37657;SDS011;23500;53.268;8.308;2023-10-31T00:08:37;12.45;;;4.72;;
37657;SDS011;23500;53.268;8.308;2023-10-31T00:11:03;11.95;;;5.13;;
37657;SDS011;23500;53.268;8.308;2023-10-31T00:13:28;9.82;;;4.85;;
37657;SDS011;23500;53.268;8.308;2023-10-31T00:15:54;11.50;;;4.97;;
37657;SDS011;23500;53.268;8.308;2023-10-31T00:18:20;12.70;;;5.20;;
37657;SDS011;23500;53.268;8.308;2023-10-31T00:20:46;10.65;;;4.32;;
37657;SDS011;23500;53.268;8.308;2023-10-31T00:23:11;12.70;;;4.93;;
37657;SDS011;23500;53.268;8.308;2023-10-31T00:25:37;10.27;;;5.15;;
37657;SDS011;23500;53.268;8.308;2023-10-31T00:28:03;12.65;;;4.82;;
37657;SDS011;23500;53.268;8.308;2023-10-31T00:30:29;11.48;;;5.13;;
37657;SDS011;23500;53.268;8.308;2023-10-31T00:32:54;10.25;;;4.70;;
37657;SDS011;23500;53.268;8.308;2023-10-31T00:35:20;11.48;;;5.10;;
37657;SDS011;23500;53.268;8.308;2023-10-31T00:37:45;12.10;;;5.05;;
37657;SDS011;23500;53.268;8.308;2023-10-31T00:40:11;11.40;;;4.75;;
37657;SDS011;23500;53.268;8.308;2023-10-31T00:42:37;11.45;;;4.93;;
37657;SDS011;23500;53.268;8.308;2023-10-31T00:45:04;8.45;;;4.05;;
37657;SDS011;23500;53.268;8.308;2023-10-31T00:47:30;11.00;;;4.68;;
37657;SDS011;23500;53.268;8.308;2023-10-31T00:49:55;11.90;;;5.10;;
37657;SDS011;23500;53.268;8.308;2023-10-31T00:52:21;9.88;;;4.38;;
37657;SDS011;23500;53.268;8.308;2023-10-31T00:54:47;9.70;;;4.25;;
37657;SDS011;23500;53.268;8.308;2023-10-31T00:57:13;10.80;;;4.80;;
37657;SDS011;23500;53.268;8.308;2023-10-31T00:59:38;9.00;;;4.28;;
37657;SDS011;23500;53.268;8.308;2023-10-31T01:02:04;9.27;;;4.22;;
37657;SDS011;23500;53.268;8.308;2023-10-31T01:04:30;10.75;;;4.70;;
37657;SDS011;23500;53.268;8.308;2023-10-31T01:06:56;8.90;;;3.83;;
37657;SDS011;23500;53.268;8.308;2023-10-31T01:09:22;10.98;;;4.55;;
37657;SDS011;23500;53.268;8.308;2023-10-31T01:11:47;10.93;;;4.70;;
37657;SDS011;23500;53.268;8.308;2023-10-31T01:14:13;9.75;;;4.47;;
37657;SDS011;23500;53.268;8.308;2023-10-31T01:16:39;10.38;;;4.22;;
37657;SDS011;23500;53.268;8.308;2023-10-31T01:19:05;9.80;;;4.40;;
37657;SDS011;23500;53.268;8.308;2023-10-31T01:21:32;10.68;;;4.43;;
37657;SDS011;23500;53.268;8.308;2023-10-31T01:23:58;9.50;;;4.80;;
37657;SDS011;23500;53.268;8.308;2023-10-31T01:26:24;8.75;;;4.55;;
37657;SDS011;23500;53.268;8.308;2023-10-31T01:28:50;10.18;;;4.38;;
37657;SDS011;23500;53.268;8.308;2023-10-31T01:31:16;9.43;;;4.25;;
37657;SDS011;23500;53.268;8.308;2023-10-31T01:33:42;10.73;;;4.47;;
37657;SDS011;23500;53.268;8.308;2023-10-31T01:36:08;9.95;;;4.53;;
37657;SDS011;23500;53.268;8.308;2023-10-31T01:38:35;9.52;;;4.20;;
37657;SDS011;23500;53.268;8.308;2023-10-31T01:41:01;8.45;;;4.13;;
37657;SDS011;23500;53.268;8.308;2023-10-31T01:45:56;8.82;;;4.20;;
37657;SDS011;23500;53.268;8.308;2023-10-31T01:48:21;10.77;;;4.47;;
37657;SDS011;23500;53.268;8.308;2023-10-31T01:50:49;9.18;;;4.40;;
37657;SDS011;23500;53.268;8.308;2023-10-31T01:53:16;7.45;;;3.40;;
37657;SDS011;23500;53.268;8.308;2023-10-31T01:55:44;9.70;;;4.35;;
37657;SDS011;23500;53.268;8.308;2023-10-31T01:58:10;10.07;;;4.47;;
37657;SDS011;23500;53.268;8.308;2023-10-31T02:00:39;9.65;;;4.35;;
37657;SDS011;23500;53.268;8.308;2023-10-31T02:03:08;8.20;;;3.85;;
37657;SDS011;23500;53.268;8.308;2023-10-31T02:05:34;8.73;;;4.18;;
37657;SDS011;23500;53.268;8.308;2023-10-31T02:08:01;10.05;;;4.40;;
37657;SDS011;23500;53.268;8.308;2023-10-31T02:10:27;10.80;;;4.13;;
37657;SDS011;23500;53.268;8.308;2023-10-31T02:12:52;8.95;;;3.80;;
37657;SDS011;23500;53.268;8.308;2023-10-31T02:15:18;8.70;;;3.72;;
37657;SDS011;23500;53.268;8.308;2023-10-31T02:17:43;9.23;;;4.20;;
37657;SDS011;23500;53.268;8.308;2023-10-31T02:20:09;7.78;;;4.10;;
37657;SDS011;23500;53.268;8.308;2023-10-31T02:22:35;8.65;;;4.38;;
37657;SDS011;23500;53.268;8.308;2023-10-31T02:25:01;10.15;;;4.07;;
37657;SDS011;23500;53.268;8.308;2023-10-31T02:27:27;8.10;;;4.18;;
37657;SDS011;23500;53.268;8.308;2023-10-31T02:29:52;7.28;;;4.03;;
37657;SDS011;23500;53.268;8.308;2023-10-31T02:32:18;8.07;;;4.10;;
37657;SDS011;23500;53.268;8.308;2023-10-31T02:34:46;6.95;;;3.88;;
37657;SDS011;23500;53.268;8.308;2023-10-31T02:37:12;8.10;;;3.90;;
37657;SDS011;23500;53.268;8.308;2023-10-31T02:39:38;7.25;;;3.75;;
37657;SDS011;23500;53.268;8.308;2023-10-31T02:42:04;7.70;;;4.18;;
37657;SDS011;23500;53.268;8.308;2023-10-31T02:44:30;8.32;;;4.35;;
37657;SDS011;23500;53.268;8.308;2023-10-31T02:46:55;8.95;;;4.07;;
37657;SDS011;23500;53.268;8.308;2023-10-31T02:49:21;8.73;;;4.00;;
37657;SDS011;23500;53.268;8.308;2023-10-31T02:51:47;7.57;;;3.97;;
37657;SDS011;23500;53.268;8.308;2023-10-31T02:54:12;8.95;;;3.88;;
37657;SDS011;23500;53.268;8.308;2023-10-31T02:56:38;8.43;;;3.75;;
37657;SDS011;23500;53.268;8.308;2023-10-31T02:59:04;5.68;;;3.63;;
37657;SDS011;23500;53.268;8.308;2023-10-31T03:01:29;8.07;;;4.05;;
37657;SDS011;23500;53.268;8.308;2023-10-31T03:03:55;5.97;;;3.75;;
37657;SDS011;23500;53.268;8.308;2023-10-31T03:06:21;8.52;;;3.83;;
37657;SDS011;23500;53.268;8.308;2023-10-31T03:08:47;7.10;;;3.85;;
37657;SDS011;23500;53.268;8.308;2023-10-31T03:11:25;7.95;;;4.30;;
37657;SDS011;23500;53.268;8.308;2023-10-31T03:13:52;9.15;;;4.35;;
37657;SDS011;23500;53.268;8.308;2023-10-31T03:16:21;7.38;;;3.78;;
37657;SDS011;23500;53.268;8.308;2023-10-31T03:18:47;8.63;;;3.80;;
37657;SDS011;23500;53.268;8.308;2023-10-31T03:21:13;6.07;;;3.67;;
37657;SDS011;23500;53.268;8.308;2023-10-31T03:23:39;7.40;;;3.67;;
37657;SDS011;23500;53.268;8.308;2023-10-31T03:26:06;7.05;;;3.63;;
37657;SDS011;23500;53.268;8.308;2023-10-31T03:28:32;6.25;;;3.33;;
37657;SDS011;23500;53.268;8.308;2023-10-31T03:30:57;5.93;;;3.08;;
37657;SDS011;23500;53.268;8.308;2023-10-31T03:33:23;7.30;;;3.95;;
37657;SDS011;23500;53.268;8.308;2023-10-31T03:35:49;7.05;;;3.40;;
37657;SDS011;23500;53.268;8.308;2023-10-31T03:38:14;7.80;;;3.50;;
37657;SDS011;23500;53.268;8.308;2023-10-31T03:40:40;8.60;;;4.07;;
37657;SDS011;23500;53.268;8.308;2023-10-31T03:43:06;6.38;;;3.45;;
37657;SDS011;23500;53.268;8.308;2023-10-31T03:45:32;7.57;;;3.67;;
37657;SDS011;23500;53.268;8.308;2023-10-31T03:47:57;6.93;;;3.70;;
37657;SDS011;23500;53.268;8.308;2023-10-31T03:50:23;6.60;;;3.50;;
37657;SDS011;23500;53.268;8.308;2023-10-31T03:52:49;5.35;;;3.22;;
37657;SDS011;23500;53.268;8.308;2023-10-31T03:55:14;8.68;;;3.53;;
37657;SDS011;23500;53.268;8.308;2023-10-31T03:57:40;7.22;;;3.67;;
37657;SDS011;23500;53.268;8.308;2023-10-31T04:00:06;6.13;;;3.60;;
37657;SDS011;23500;53.268;8.308;2023-10-31T04:02:32;8.35;;;3.33;;
37657;SDS011;23500;53.268;8.308;2023-10-31T04:04:58;6.03;;;3.50;;
37657;SDS011;23500;53.268;8.308;2023-10-31T04:07:24;5.97;;;3.42;;
37657;SDS011;23500;53.268;8.308;2023-10-31T04:09:50;7.90;;;3.85;;
37657;SDS011;23500;53.268;8.308;2023-10-31T04:12:16;7.45;;;3.45;;
37657;SDS011;23500;53.268;8.308;2023-10-31T04:14:42;8.43;;;3.70;;
37657;SDS011;23500;53.268;8.308;2023-10-31T04:17:08;6.47;;;3.40;;
37657;SDS011;23500;53.268;8.308;2023-10-31T04:19:35;6.30;;;3.45;;
37657;SDS011;23500;53.268;8.308;2023-10-31T04:22:01;6.65;;;3.47;;
37657;SDS011;23500;53.268;8.308;2023-10-31T04:24:27;8.35;;;3.72;;
37657;SDS011;23500;53.268;8.308;2023-10-31T04:26:53;6.95;;;3.58;;
37657;SDS011;23500;53.268;8.308;2023-10-31T04:29:19;7.72;;;3.88;;
37657;SDS011;23500;53.268;8.308;2023-10-31T04:31:44;4.90;;;3.17;;
37657;SDS011;23500;53.268;8.308;2023-10-31T04:34:10;6.85;;;3.53;;
37657;SDS011;23500;53.268;8.308;2023-10-31T04:36:36;7.07;;;3.50;;
37657;SDS011;23500;53.268;8.308;2023-10-31T04:39:01;5.78;;;3.25;;
37657;SDS011;23500;53.268;8.308;2023-10-31T04:41:27;6.35;;;3.55;;
37657;SDS011;23500;53.268;8.308;2023-10-31T04:43:53;6.82;;;3.38;;
37657;SDS011;23500;53.268;8.308;2023-10-31T04:46:19;6.70;;;3.40;;
37657;SDS011;23500;53.268;8.308;2023-10-31T04:48:44;5.35;;;3.00;;
37657;SDS011;23500;53.268;8.308;2023-10-31T04:51:10;4.93;;;2.90;;
37657;SDS011;23500;53.268;8.308;2023-10-31T04:53:35;6.95;;;3.28;;
37657;SDS011;23500;53.268;8.308;2023-10-31T04:56:01;6.28;;;3.38;;
37657;SDS011;23500;53.268;8.308;2023-10-31T04:58:27;5.22;;;3.03;;
37657;SDS011;23500;53.268;8.308;2023-10-31T05:00:52;5.35;;;3.10;;
37657;SDS011;23500;53.268;8.308;2023-10-31T05:03:18;6.53;;;3.33;;
37657;SDS011;23500;53.268;8.308;2023-10-31T05:05:44;6.45;;;3.33;;
37657;SDS011;23500;53.268;8.308;2023-10-31T05:08:09;5.63;;;2.78;;
37657;SDS011;23500;53.268;8.308;2023-10-31T05:10:35;6.10;;;3.17;;
37657;SDS011;23500;53.268;8.308;2023-10-31T05:13:01;7.22;;;3.42;;
37657;SDS011;23500;53.268;8.308;2023-10-31T05:15:30;6.60;;;3.20;;
37657;SDS011;23500;53.268;8.308;2023-10-31T05:17:56;5.30;;;3.00;;
37657;SDS011;23500;53.268;8.308;2023-10-31T05:20:21;6.53;;;3.20;;
37657;SDS011;23500;53.268;8.308;2023-10-31T05:22:47;5.90;;;3.22;;
37657;SDS011;23500;53.268;8.308;2023-10-31T05:25:12;5.03;;;2.92;;
37657;SDS011;23500;53.268;8.308;2023-10-31T05:27:38;5.47;;;3.08;;
37657;SDS011;23500;53.268;8.308;2023-10-31T05:30:04;5.80;;;3.22;;
37657;SDS011;23500;53.268;8.308;2023-10-31T05:32:30;6.10;;;2.85;;
37657;SDS011;23500;53.268;8.308;2023-10-31T05:34:56;4.57;;;2.80;;
37657;SDS011;23500;53.268;8.308;2023-10-31T05:37:22;6.53;;;3.38;;
37657;SDS011;23500;53.268;8.308;2023-10-31T05:39:47;5.55;;;3.30;;
37657;SDS011;23500;53.268;8.308;2023-10-31T05:42:13;6.13;;;2.88;;
37657;SDS011;23500;53.268;8.308;2023-10-31T05:44:39;5.30;;;3.08;;
37657;SDS011;23500;53.268;8.308;2023-10-31T05:47:05;5.38;;;2.95;;
37657;SDS011;23500;53.268;8.308;2023-10-31T05:49:30;4.32;;;2.65;;
37657;SDS011;23500;53.268;8.308;2023-10-31T05:51:56;5.53;;;2.67;;
37657;SDS011;23500;53.268;8.308;2023-10-31T05:54:22;6.25;;;2.83;;
37657;SDS011;23500;53.268;8.308;2023-10-31T05:56:47;5.50;;;3.10;;
37657;SDS011;23500;53.268;8.308;2023-10-31T05:59:13;5.63;;;2.80;;
37657;SDS011;23500;53.268;8.308;2023-10-31T06:01:39;5.22;;;2.35;;
37657;SDS011;23500;53.268;8.308;2023-10-31T06:04:04;4.25;;;2.70;;
37657;SDS011;23500;53.268;8.308;2023-10-31T06:06:33;4.70;;;3.00;;
37657;SDS011;23500;53.268;8.308;2023-10-31T06:09:03;4.95;;;3.22;;
37657;SDS011;23500;53.268;8.308;2023-10-31T06:11:29;7.15;;;3.22;;
37657;SDS011;23500;53.268;8.308;2023-10-31T06:13:55;4.65;;;2.83;;
37657;SDS011;23500;53.268;8.308;2023-10-31T06:16:20;5.68;;;3.10;;
37657;SDS011;23500;53.268;8.308;2023-10-31T06:18:46;6.10;;;3.30;;
37657;SDS011;23500;53.268;8.308;2023-10-31T06:21:12;4.85;;;2.50;;
37657;SDS011;23500;53.268;8.308;2023-10-31T06:23:37;5.57;;;3.30;;
37657;SDS011;23500;53.268;8.308;2023-10-31T06:26:04;4.57;;;2.83;;
37657;SDS011;23500;53.268;8.308;2023-10-31T06:28:30;5.70;;;2.80;;
37657;SDS011;23500;53.268;8.308;2023-10-31T06:30:59;4.65;;;2.95;;
37657;SDS011;23500;53.268;8.308;2023-10-31T06:33:25;5.18;;;2.67;;
37657;SDS011;23500;53.268;8.308;2023-10-31T06:35:51;4.40;;;2.55;;
37657;SDS011;23500;53.268;8.308;2023-10-31T06:38:18;5.53;;;3.08;;
37657;SDS011;23500;53.268;8.308;2023-10-31T06:40:44;5.30;;;2.50;;
37657;SDS011;23500;53.268;8.308;2023-10-31T06:43:10;5.00;;;2.55;;
37657;SDS011;23500;53.268;8.308;2023-10-31T06:45:36;5.05;;;2.90;;
37657;SDS011;23500;53.268;8.308;2023-10-31T06:48:02;3.58;;;2.28;;
37657;SDS011;23500;53.268;8.308;2023-10-31T06:50:28;3.78;;;2.50;;
37657;SDS011;23500;53.268;8.308;2023-10-31T06:52:54;4.85;;;2.83;;
37657;SDS011;23500;53.268;8.308;2023-10-31T06:55:19;4.90;;;2.60;;
37657;SDS011;23500;53.268;8.308;2023-10-31T06:57:45;5.15;;;2.50;;
37657;SDS011;23500;53.268;8.308;2023-10-31T07:00:11;5.70;;;3.00;;
37657;SDS011;23500;53.268;8.308;2023-10-31T07:02:37;5.78;;;2.75;;
37657;SDS011;23500;53.268;8.308;2023-10-31T07:05:03;4.32;;;2.10;;
37657;SDS011;23500;53.268;8.308;2023-10-31T07:07:29;5.75;;;2.85;;
37657;SDS011;23500;53.268;8.308;2023-10-31T07:09:55;4.97;;;2.55;;
37657;SDS011;23500;53.268;8.308;2023-10-31T07:12:20;4.18;;;2.33;;
37657;SDS011;23500;53.268;8.308;2023-10-31T07:14:46;4.07;;;2.50;;
37657;SDS011;23500;53.268;8.308;2023-10-31T07:17:12;4.22;;;2.38;;
37657;SDS011;23500;53.268;8.308;2023-10-31T07:19:38;4.95;;;2.58;;
37657;SDS011;23500;53.268;8.308;2023-10-31T07:22:03;5.38;;;2.60;;
37657;SDS011;23500;53.268;8.308;2023-10-31T07:24:29;5.32;;;2.35;;
37657;SDS011;23500;53.268;8.308;2023-10-31T07:26:55;4.95;;;2.50;;
37657;SDS011;23500;53.268;8.308;2023-10-31T07:29:20;4.63;;;2.33;;
37657;SDS011;23500;53.268;8.308;2023-10-31T07:31:46;3.92;;;2.20;;
37657;SDS011;23500;53.268;8.308;2023-10-31T07:34:12;4.00;;;2.55;;
37657;SDS011;23500;53.268;8.308;2023-10-31T07:36:38;4.07;;;2.47;;
37657;SDS011;23500;53.268;8.308;2023-10-31T07:39:04;4.53;;;2.38;;
37657;SDS011;23500;53.268;8.308;2023-10-31T07:41:30;4.13;;;2.05;;
37657;SDS011;23500;53.268;8.308;2023-10-31T07:43:56;4.10;;;2.10;;
37657;SDS011;23500;53.268;8.308;2023-10-31T07:46:21;5.53;;;2.75;;
37657;SDS011;23500;53.268;8.308;2023-10-31T07:48:48;4.63;;;2.42;;
37657;SDS011;23500;53.268;8.308;2023-10-31T07:51:14;5.13;;;2.58;;
37657;SDS011;23500;53.268;8.308;2023-10-31T07:53:41;3.58;;;2.25;;
37657;SDS011;23500;53.268;8.308;2023-10-31T07:56:14;3.55;;;2.08;;
37657;SDS011;23500;53.268;8.308;2023-10-31T07:58:43;3.53;;;2.40;;
37657;SDS011;23500;53.268;8.308;2023-10-31T08:01:09;3.75;;;2.20;;
37657;SDS011;23500;53.268;8.308;2023-10-31T08:03:35;3.78;;;2.15;;
37657;SDS011;23500;53.268;8.308;2023-10-31T08:06:05;3.28;;;1.95;;
37657;SDS011;23500;53.268;8.308;2023-10-31T08:08:32;2.92;;;1.92;;
37657;SDS011;23500;53.268;8.308;2023-10-31T08:10:59;4.93;;;2.22;;
37657;SDS011;23500;53.268;8.308;2023-10-31T08:13:25;2.78;;;1.90;;
37657;SDS011;23500;53.268;8.308;2023-10-31T08:15:50;3.70;;;2.10;;
37657;SDS011;23500;53.268;8.308;2023-10-31T08:18:16;3.88;;;2.17;;
37657;SDS011;23500;53.268;8.308;2023-10-31T08:20:42;3.30;;;1.85;;
37657;SDS011;23500;53.268;8.308;2023-10-31T08:23:11;4.32;;;2.15;;
37657;SDS011;23500;53.268;8.308;2023-10-31T08:25:36;4.18;;;1.90;;
37657;SDS011;23500;53.268;8.308;2023-10-31T08:28:02;4.47;;;2.05;;
37657;SDS011;23500;53.268;8.308;2023-10-31T08:30:28;2.88;;;1.95;;
37657;SDS011;23500;53.268;8.308;2023-10-31T08:32:53;3.08;;;1.83;;
37657;SDS011;23500;53.268;8.308;2023-10-31T08:35:19;2.65;;;1.80;;
37657;SDS011;23500;53.268;8.308;2023-10-31T08:37:45;3.28;;;2.08;;
37657;SDS011;23500;53.268;8.308;2023-10-31T08:40:10;3.97;;;2.03;;
37657;SDS011;23500;53.268;8.308;2023-10-31T08:42:36;2.90;;;1.92;;
37657;SDS011;23500;53.268;8.308;2023-10-31T08:45:02;3.53;;;1.88;;
37657;SDS011;23500;53.268;8.308;2023-10-31T08:47:28;2.58;;;1.70;;
37657;SDS011;23500;53.268;8.308;2023-10-31T08:49:54;4.93;;;2.33;;
37657;SDS011;23500;53.268;8.308;2023-10-31T08:52:20;3.30;;;1.70;;
37657;SDS011;23500;53.268;8.308;2023-10-31T08:54:47;4.35;;;1.90;;
37657;SDS011;23500;53.268;8.308;2023-10-31T08:57:12;3.75;;;1.88;;
37657;SDS011;23500;53.268;8.308;2023-10-31T08:59:39;3.20;;;1.80;;
37657;SDS011;23500;53.268;8.308;2023-10-31T09:02:05;4.88;;;1.92;;
37657;SDS011;23500;53.268;8.308;2023-10-31T09:04:31;3.40;;;1.67;;
37657;SDS011;23500;53.268;8.308;2023-10-31T09:06:57;3.13;;;1.90;;
37657;SDS011;23500;53.268;8.308;2023-10-31T09:09:22;6.03;;;2.20;;
37657;SDS011;23500;53.268;8.308;2023-10-31T09:11:48;2.95;;;1.80;;
37657;SDS011;23500;53.268;8.308;2023-10-31T09:14:13;2.92;;;1.80;;
37657;SDS011;23500;53.268;8.308;2023-10-31T09:16:39;3.83;;;2.22;;
37657;SDS011;23500;53.268;8.308;2023-10-31T09:19:05;2.65;;;1.40;;
37657;SDS011;23500;53.268;8.308;2023-10-31T09:21:31;3.08;;;2.05;;
37657;SDS011;23500;53.268;8.308;2023-10-31T09:23:56;2.72;;;1.70;;
37657;SDS011;23500;53.268;8.308;2023-10-31T09:26:22;2.13;;;1.65;;
37657;SDS011;23500;53.268;8.308;2023-10-31T09:28:48;2.33;;;1.48;;
37657;SDS011;23500;53.268;8.308;2023-10-31T09:31:16;3.20;;;1.48;;
37657;SDS011;23500;53.268;8.308;2023-10-31T09:33:43;3.05;;;1.58;;
37657;SDS011;23500;53.268;8.308;2023-10-31T09:36:09;2.47;;;1.80;;
37657;SDS011;23500;53.268;8.308;2023-10-31T09:38:35;2.83;;;1.73;;
37657;SDS011;23500;53.268;8.308;2023-10-31T09:41:00;3.92;;;1.77;;
37657;SDS011;23500;53.268;8.308;2023-10-31T09:43:26;3.58;;;1.80;;
37657;SDS011;23500;53.268;8.308;2023-10-31T09:45:52;4.82;;;1.70;;
37657;SDS011;23500;53.268;8.308;2023-10-31T09:48:19;2.63;;;1.80;;
37657;SDS011;23500;53.268;8.308;2023-10-31T09:50:45;3.00;;;1.65;;
37657;SDS011;23500;53.268;8.308;2023-10-31T09:53:11;3.83;;;1.80;;
37657;SDS011;23500;53.268;8.308;2023-10-31T09:55:39;2.30;;;1.55;;
37657;SDS011;23500;53.268;8.308;2023-10-31T09:58:06;3.65;;;1.98;;
37657;SDS011;23500;53.268;8.308;2023-10-31T10:00:32;3.75;;;1.70;;
37657;SDS011;23500;53.268;8.308;2023-10-31T10:02:57;2.03;;;1.60;;
37657;SDS011;23500;53.268;8.308;2023-10-31T10:05:24;2.22;;;1.50;;
37657;SDS011;23500;53.268;8.308;2023-10-31T10:07:54;1.75;;;1.35;;
37657;SDS011;23500;53.268;8.308;2023-10-31T10:10:20;3.53;;;1.85;;
37657;SDS011;23500;53.268;8.308;2023-10-31T10:12:46;2.58;;;1.60;;
37657;SDS011;23500;53.268;8.308;2023-10-31T10:15:11;2.53;;;1.52;;
37657;SDS011;23500;53.268;8.308;2023-10-31T10:17:37;3.33;;;1.63;;
37657;SDS011;23500;53.268;8.308;2023-10-31T10:20:07;2.97;;;1.73;;
37657;SDS011;23500;53.268;8.308;2023-10-31T10:22:41;1.90;;;1.50;;
37657;SDS011;23500;53.268;8.308;2023-10-31T10:25:08;3.30;;;1.63;;
37657;SDS011;23500;53.268;8.308;2023-10-31T10:27:40;2.17;;;1.40;;
37657;SDS011;23500;53.268;8.308;2023-10-31T10:30:07;1.88;;;1.48;;
37657;SDS011;23500;53.268;8.308;2023-10-31T10:32:34;2.63;;;1.50;;
37657;SDS011;23500;53.268;8.308;2023-10-31T10:35:00;2.75;;;1.90;;
37657;SDS011;23500;53.268;8.308;2023-10-31T10:37:26;2.00;;;1.35;;
37657;SDS011;23500;53.268;8.308;2023-10-31T10:39:53;2.03;;;1.35;;
37657;SDS011;23500;53.268;8.308;2023-10-31T10:42:32;2.63;;;1.70;;
37657;SDS011;23500;53.268;8.308;2023-10-31T10:45:01;1.65;;;1.30;;
37657;SDS011;23500;53.268;8.308;2023-10-31T10:47:29;2.15;;;1.60;;
37657;SDS011;23500;53.268;8.308;2023-10-31T10:49:58;4.43;;;1.85;;
37657;SDS011;23500;53.268;8.308;2023-10-31T10:52:30;2.45;;;1.70;;
37657;SDS011;23500;53.268;8.308;2023-10-31T10:55:32;1.90;;;1.55;;
37657;SDS011;23500;53.268;8.308;2023-10-31T11:00:46;2.35;;;1.63;;
37657;SDS011;23500;53.268;8.308;2023-10-31T11:03:13;3.22;;;1.90;;
37657;SDS011;23500;53.268;8.308;2023-10-31T11:05:39;3.20;;;1.90;;
37657;SDS011;23500;53.268;8.308;2023-10-31T11:08:06;2.17;;;1.50;;
37657;SDS011;23500;53.268;8.308;2023-10-31T11:10:32;3.30;;;1.90;;
37657;SDS011;23500;53.268;8.308;2023-10-31T11:12:58;2.42;;;1.60;;
37657;SDS011;23500;53.268;8.308;2023-10-31T11:15:23;2.28;;;1.70;;
37657;SDS011;23500;53.268;8.308;2023-10-31T11:17:49;3.45;;;1.67;;
37657;SDS011;23500;53.268;8.308;2023-10-31T11:20:17;2.13;;;1.80;;
37657;SDS011;23500;53.268;8.308;2023-10-31T11:22:45;2.13;;;1.75;;
37657;SDS011;23500;53.268;8.308;2023-10-31T11:25:23;2.60;;;1.70;;
37657;SDS011;23500;53.268;8.308;2023-10-31T11:27:56;2.45;;;1.70;;
37657;SDS011;23500;53.268;8.308;2023-10-31T11:30:35;3.05;;;1.92;;
37657;SDS011;23500;53.268;8.308;2023-10-31T11:33:01;3.40;;;1.90;;
37657;SDS011;23500;53.268;8.308;2023-10-31T11:35:33;2.70;;;1.88;;
37657;SDS011;23500;53.268;8.308;2023-10-31T11:38:05;2.00;;;1.80;;
37657;SDS011;23500;53.268;8.308;2023-10-31T11:40:37;3.53;;;1.77;;
37657;SDS011;23500;53.268;8.308;2023-10-31T11:43:22;3.00;;;2.10;;
37657;SDS011;23500;53.268;8.308;2023-10-31T11:45:48;2.97;;;1.88;;
37657;SDS011;23500;53.268;8.308;2023-10-31T11:48:14;3.65;;;2.17;;
37657;SDS011;23500;53.268;8.308;2023-10-31T11:50:40;3.80;;;1.90;;
37657;SDS011;23500;53.268;8.308;2023-10-31T11:55:42;3.70;;;2.05;;
37657;SDS011;23500;53.268;8.308;2023-10-31T12:00:45;11.55;;;3.95;;
37657;SDS011;23500;53.268;8.308;2023-10-31T12:03:14;9.23;;;3.83;;
37657;SDS011;23500;53.268;8.308;2023-10-31T12:05:50;9.35;;;4.50;;
37657;SDS011;23500;53.268;8.308;2023-10-31T12:10:52;15.85;;;4.88;;
37657;SDS011;23500;53.268;8.308;2023-10-31T12:13:18;12.70;;;4.88;;
37657;SDS011;23500;53.268;8.308;2023-10-31T12:15:52;11.30;;;5.22;;
37657;SDS011;23500;53.268;8.308;2023-10-31T12:18:18;15.40;;;5.03;;
37657;SDS011;23500;53.268;8.308;2023-10-31T12:20:50;14.45;;;5.32;;
37657;SDS011;23500;53.268;8.308;2023-10-31T12:23:19;16.90;;;4.90;;
37657;SDS011;23500;53.268;8.308;2023-10-31T12:25:48;14.57;;;5.72;;
37657;SDS011;23500;53.268;8.308;2023-10-31T12:28:18;14.65;;;5.70;;
37657;SDS011;23500;53.268;8.308;2023-10-31T12:30:48;13.48;;;4.80;;
37657;SDS011;23500;53.268;8.308;2023-10-31T12:33:15;20.20;;;5.88;;
37657;SDS011;23500;53.268;8.308;2023-10-31T12:35:41;13.43;;;5.25;;
37657;SDS011;23500;53.268;8.308;2023-10-31T12:38:09;15.55;;;5.32;;
37657;SDS011;23500;53.268;8.308;2023-10-31T12:40:36;14.18;;;5.05;;
37657;SDS011;23500;53.268;8.308;2023-10-31T12:43:02;18.52;;;5.30;;
37657;SDS011;23500;53.268;8.308;2023-10-31T12:45:28;14.23;;;5.00;;
37657;SDS011;23500;53.268;8.308;2023-10-31T12:48:05;13.82;;;4.93;;
37657;SDS011;23500;53.268;8.308;2023-10-31T12:50:33;12.40;;;4.65;;
37657;SDS011;23500;53.268;8.308;2023-10-31T12:53:03;10.68;;;4.90;;
37657;SDS011;23500;53.268;8.308;2023-10-31T12:55:29;12.85;;;4.80;;
37657;SDS011;23500;53.268;8.308;2023-10-31T12:57:56;12.15;;;4.35;;
37657;SDS011;23500;53.268;8.308;2023-10-31T13:00:29;10.50;;;4.47;;
37657;SDS011;23500;53.268;8.308;2023-10-31T13:03:04;12.95;;;4.75;;
37657;SDS011;23500;53.268;8.308;2023-10-31T13:05:31;12.18;;;4.47;;
37657;SDS011;23500;53.268;8.308;2023-10-31T13:07:58;12.95;;;4.38;;
37657;SDS011;23500;53.268;8.308;2023-10-31T13:10:25;12.48;;;4.63;;
37657;SDS011;23500;53.268;8.308;2023-10-31T13:12:52;9.68;;;4.65;;
37657;SDS011;23500;53.268;8.308;2023-10-31T13:15:19;12.35;;;4.20;;
37657;SDS011;23500;53.268;8.308;2023-10-31T13:17:47;12.88;;;4.72;;
37657;SDS011;23500;53.268;8.308;2023-10-31T13:20:14;9.35;;;4.15;;
37657;SDS011;23500;53.268;8.308;2023-10-31T13:22:41;8.80;;;4.00;;
37657;SDS011;23500;53.268;8.308;2023-10-31T13:25:08;12.88;;;4.47;;
37657;SDS011;23500;53.268;8.308;2023-10-31T13:27:38;12.00;;;4.78;;
37657;SDS011;23500;53.268;8.308;2023-10-31T13:30:08;9.98;;;3.95;;
37657;SDS011;23500;53.268;8.308;2023-10-31T13:32:38;9.27;;;3.95;;
37657;SDS011;23500;53.268;8.308;2023-10-31T13:35:07;12.68;;;4.03;;
37657;SDS011;23500;53.268;8.308;2023-10-31T13:37:34;9.98;;;4.13;;
37657;SDS011;23500;53.268;8.308;2023-10-31T13:40:00;10.20;;;3.70;;
37657;SDS011;23500;53.268;8.308;2023-10-31T13:42:26;9.13;;;3.63;;
37657;SDS011;23500;53.268;8.308;2023-10-31T13:44:53;11.77;;;3.80;;
37657;SDS011;23500;53.268;8.308;2023-10-31T13:47:19;11.68;;;4.22;;
37657;SDS011;23500;53.268;8.308;2023-10-31T13:49:45;6.93;;;3.55;;
37657;SDS011;23500;53.268;8.308;2023-10-31T13:52:11;8.00;;;3.65;;
37657;SDS011;23500;53.268;8.308;2023-10-31T13:54:37;9.43;;;3.72;;
37657;SDS011;23500;53.268;8.308;2023-10-31T13:57:02;11.60;;;3.72;;
37657;SDS011;23500;53.268;8.308;2023-10-31T13:59:28;6.85;;;3.35;;
37657;SDS011;23500;53.268;8.308;2023-10-31T14:01:54;7.20;;;3.33;;
37657;SDS011;23500;53.268;8.308;2023-10-31T14:04:20;6.07;;;3.38;;
37657;SDS011;23500;53.268;8.308;2023-10-31T14:06:46;7.53;;;3.88;;
37657;SDS011;23500;53.268;8.308;2023-10-31T14:09:13;7.35;;;3.55;;
37657;SDS011;23500;53.268;8.308;2023-10-31T14:11:39;7.10;;;3.15;;
37657;SDS011;23500;53.268;8.308;2023-10-31T14:14:06;5.57;;;3.20;;
37657;SDS011;23500;53.268;8.308;2023-10-31T14:16:35;6.28;;;3.20;;
37657;SDS011;23500;53.268;8.308;2023-10-31T14:19:02;8.55;;;3.42;;
37657;SDS011;23500;53.268;8.308;2023-10-31T14:21:28;8.00;;;3.78;;
37657;SDS011;23500;53.268;8.308;2023-10-31T14:23:54;6.75;;;3.60;;
37657;SDS011;23500;53.268;8.308;2023-10-31T14:26:20;6.68;;;3.00;;
37657;SDS011;23500;53.268;8.308;2023-10-31T14:28:46;7.43;;;3.15;;
37657;SDS011;23500;53.268;8.308;2023-10-31T14:31:12;6.45;;;3.20;;
37657;SDS011;23500;53.268;8.308;2023-10-31T14:33:38;5.88;;;3.22;;
37657;SDS011;23500;53.268;8.308;2023-10-31T14:36:04;8.95;;;2.95;;
37657;SDS011;23500;53.268;8.308;2023-10-31T14:38:30;9.32;;;3.20;;
37657;SDS011;23500;53.268;8.308;2023-10-31T14:40:56;9.05;;;3.50;;
37657;SDS011;23500;53.268;8.308;2023-10-31T14:43:22;9.00;;;3.20;;
37657;SDS011;23500;53.268;8.308;2023-10-31T14:45:47;6.75;;;3.10;;
37657;SDS011;23500;53.268;8.308;2023-10-31T14:48:13;7.75;;;2.97;;
37657;SDS011;23500;53.268;8.308;2023-10-31T14:50:39;9.27;;;3.30;;
37657;SDS011;23500;53.268;8.308;2023-10-31T14:53:05;8.20;;;3.20;;
37657;SDS011;23500;53.268;8.308;2023-10-31T14:55:30;7.97;;;2.75;;